Time;durP1;ratioP1;P1;durP2;ratioP2;P2;SDS_P1;SDS_P2;PMS_P1;PMS_P2;Temp;Humidity;BMP_temperature;BMP_pressure;BME280_temperature;BME280_humidity;BME280_pressure;Samples;Min_cycle;Max_cycle;Signal;HPM_P1;HPM_P2
2022/07/11 00:01:43;;;;;;;;;4.75;3.50;;;;;23.75;32.33;101794.94;5021160;28;45366;-58
2022/07/11 00:04:08;;;;;;;;;4.50;3.50;;;;;23.75;32.02;101793.16;5021507;28;45148;-58
2022/07/11 00:06:33;;;;;;;;;2.75;2.75;;;;;23.69;32.12;101785.44;5021468;28;45201;-58
2022/07/11 00:08:59;;;;;;;;;3.00;2.75;;;;;23.68;31.82;101783.69;5016229;28;45283;-58
2022/07/11 00:11:24;;;;;;;;;2.25;2.25;;;;;23.67;32.62;101780.16;5021601;28;45193;-58
2022/07/11 00:13:50;;;;;;;;;2.00;2.00;;;;;23.64;32.07;101777.59;5021186;28;45230;-57
2022/07/11 00:16:15;;;;;;;;;3.00;3.00;;;;;23.61;32.19;101771.53;5021158;28;46854;-58
2022/07/11 00:18:41;;;;;;;;;2.50;2.50;;;;;23.59;32.77;101778.81;5021389;28;45186;-58
2022/07/11 00:21:06;;;;;;;;;2.25;2.25;;;;;23.57;32.34;101775.34;5021240;28;45357;-58
2022/07/11 00:23:31;;;;;;;;;3.00;3.00;;;;;23.53;32.45;101769.25;5021174;28;45318;-58
2022/07/11 00:25:57;;;;;;;;;4.25;3.25;;;;;23.50;32.54;101774.81;5019604;28;50348;-58
2022/07/11 00:28:22;;;;;;;;;3.25;3.25;;;;;23.47;32.61;101773.16;5020846;28;45411;-58
2022/07/11 00:30:47;;;;;;;;;3.00;3.00;;;;;23.44;32.68;101767.06;5020920;28;45307;-58
2022/07/11 00:33:13;;;;;;;;;3.75;3.75;;;;;23.40;32.48;101766.38;5020661;28;45355;-58
2022/07/11 00:35:38;;;;;;;;;2.25;2.00;;;;;23.39;32.64;101766.47;5020382;28;45866;-58
2022/07/11 00:38:03;;;;;;;;;3.00;3.00;;;;;23.35;32.83;101768.44;5020893;28;45503;-58
2022/07/11 00:40:29;;;;;;;;;3.00;3.00;;;;;23.33;32.59;101770.31;5020785;28;45357;-58
2022/07/11 00:42:54;;;;;;;;;1.00;1.00;;;;;23.30;32.94;101771.34;5020640;28;45294;-58
2022/07/11 00:45:20;;;;;;;;;3.00;2.25;;;;;23.28;32.98;101770.56;5020662;28;45900;-58
2022/07/11 00:47:45;;;;;;;;;3.50;3.00;;;;;23.25;32.75;101776.06;5020598;28;45384;-58
2022/07/11 00:50:11;;;;;;;;;2.00;2.00;;;;;23.20;32.86;101765.56;5021043;28;45400;-58
2022/07/11 00:52:37;;;;;;;;;3.00;3.00;;;;;23.21;32.92;101775.34;5020676;28;45535;-57
2022/07/11 00:55:03;;;;;;;;;3.25;2.00;;;;;23.16;33.19;101763.16;5019308;28;45359;-57
2022/07/11 00:57:28;;;;;;;;;2.00;2.00;;;;;23.16;33.22;101769.38;5020543;28;45166;-58
2022/07/11 00:59:54;;;;;;;;;2.00;2.00;;;;;23.14;33.16;101754.28;5020509;28;45382;-57
2022/07/11 01:02:19;;;;;;;;;2.25;2.25;;;;;23.09;33.07;101754.50;5020352;28;45488;-57
2022/07/11 01:04:44;;;;;;;;;4.50;3.50;;;;;23.09;33.36;101759.00;5020340;28;46105;-57
2022/07/11 01:07:10;;;;;;;;;3.00;3.00;;;;;23.07;33.16;101761.78;5017063;28;45217;-58
2022/07/11 01:09:35;;;;;;;;;2.75;2.75;;;;;23.04;33.23;101759.22;5019447;28;45558;-57
2022/07/11 01:12:01;;;;;;;;;5.25;3.25;;;;;23.03;33.53;101765.53;5020094;28;45499;-57
2022/07/11 01:14:26;;;;;;;;;1.75;1.75;;;;;23.00;33.33;101755.84;5019956;28;46044;-58
2022/07/11 01:16:51;;;;;;;;;3.00;3.00;;;;;22.98;33.41;101756.88;5020319;28;45339;-57
2022/07/11 01:19:17;;;;;;;;;3.75;3.00;;;;;22.93;33.58;101754.44;5020503;28;45386;-57
2022/07/11 01:21:45;;;;;;;;;4.50;3.00;;;;;22.91;33.82;101748.28;5020279;28;45336;-57
2022/07/11 01:24:11;;;;;;;;;3.00;3.00;;;;;22.88;33.23;101756.47;5018873;28;46288;-57
2022/07/11 01:26:37;;;;;;;;;2.00;2.00;;;;;22.87;33.28;101750.25;5018367;28;45214;-57
2022/07/11 01:29:11;;;;;;;;;3.00;3.00;;;;;22.85;33.72;101757.47;5019979;28;45418;-57
2022/07/11 01:31:41;;;;;;;;;1.75;1.75;;;;;22.83;33.59;101748.66;5019983;28;45580;-57
2022/07/11 01:34:06;;;;;;;;;2.00;1.25;;;;;22.78;33.44;101744.47;5020107;28;46150;-57
2022/07/11 01:36:32;;;;;;;;;2.00;2.00;;;;;22.78;33.48;101753.38;5019925;28;45268;-57
2022/07/11 01:38:57;;;;;;;;;2.00;2.00;;;;;22.75;33.81;101748.16;5020204;28;45268;-57
2022/07/11 01:41:23;;;;;;;;;3.00;3.00;;;;;22.75;33.99;101750.00;5018795;28;45511;-57
2022/07/11 01:43:48;;;;;;;;;3.00;3.00;;;;;22.74;33.78;101754.47;5018504;28;47933;-57
2022/07/11 01:46:14;;;;;;;;;2.00;2.00;;;;;22.68;33.68;101744.09;5019957;28;45494;-57
2022/07/11 01:48:40;;;;;;;;;2.00;2.00;;;;;22.70;33.89;101759.13;5035362;28;45334;-57
2022/07/11 01:51:06;;;;;;;;;3.00;3.00;;;;;22.69;33.74;101756.50;5019570;28;45284;-57
2022/07/11 01:53:31;;;;;;;;;1.50;1.50;;;;;22.67;33.71;101759.25;5019822;28;45220;-57
2022/07/11 01:55:57;;;;;;;;;2.00;1.00;;;;;22.64;34.16;101759.44;5019899;28;45328;-57
2022/07/11 01:58:22;;;;;;;;;1.50;1.50;;;;;22.63;34.10;101760.38;5019811;28;45465;-57
2022/07/11 02:00:47;;;;;;;;;3.00;3.00;;;;;22.60;33.69;101756.97;5019696;28;45466;-57
2022/07/11 02:03:13;;;;;;;;;2.00;2.00;;;;;22.57;33.83;101755.31;5019426;28;45993;-57
2022/07/11 02:05:39;;;;;;;;;3.00;2.00;;;;;22.57;34.31;101757.97;5018361;28;46220;-57
2022/07/11 02:08:12;;;;;;;;;3.25;2.75;;;;;22.55;34.50;101751.81;5015252;28;45542;-57
2022/07/11 02:10:44;;;;;;;;;2.75;2.75;;;;;22.50;34.28;101748.50;5018419;28;45339;-57
2022/07/11 02:13:11;;;;;;;;;2.25;1.75;;;;;22.51;34.22;101752.94;5019462;28;45427;-57
2022/07/11 02:15:38;;;;;;;;;2.00;1.50;;;;;22.47;33.98;101757.56;5019444;28;45228;-57
2022/07/11 02:18:03;;;;;;;;;2.00;2.00;;;;;22.46;33.87;101766.53;5019618;28;45299;-57
2022/07/11 02:20:28;;;;;;;;;2.00;2.00;;;;;22.46;33.93;101754.97;5019237;28;45516;-57
2022/07/11 02:22:54;;;;;;;;;2.50;2.50;;;;;22.43;34.64;101758.66;5019826;28;46156;-57
2022/07/11 02:25:21;;;;;;;;;3.00;3.00;;;;;22.44;34.13;101759.50;5021669;28;45245;-57
2022/07/11 02:27:46;;;;;;;;;3.00;3.00;;;;;22.43;34.00;101764.00;5022954;28;45451;-58
2022/07/11 02:30:11;;;;;;;;;1.75;1.75;;;;;22.42;34.16;101769.44;5022821;28;46326;-58
2022/07/11 02:32:37;;;;;;;;;3.75;3.75;;;;;22.40;34.39;101765.03;5022675;28;45284;-57
2022/07/11 02:35:04;;;;;;;;;6.25;5.00;;;;;22.39;34.82;101762.44;5022726;28;45295;-58
2022/07/11 02:37:29;;;;;;;;;4.00;2.00;;;;;22.39;34.46;101765.13;5021721;28;45329;-58
2022/07/11 02:39:55;;;;;;;;;3.25;3.25;;;;;22.37;34.52;101757.13;5037975;28;45517;-58
2022/07/11 02:42:20;;;;;;;;;2.75;2.75;;;;;22.34;34.83;101757.25;5021233;28;45266;-57
2022/07/11 02:44:45;;;;;;;;;3.00;3.00;;;;;22.34;34.65;101753.69;5022804;28;45229;-58
2022/07/11 02:47:11;;;;;;;;;3.00;3.00;;;;;22.33;34.64;101750.16;5022798;28;45297;-57
2022/07/11 02:49:37;;;;;;;;;1.50;1.50;;;;;22.32;34.75;101750.25;5022591;28;45189;-58
2022/07/11 02:52:03;;;;;;;;;2.50;2.50;;;;;22.29;35.02;101753.94;5022551;28;46350;-57
2022/07/11 02:54:29;;;;;;;;;3.25;3.25;;;;;22.27;34.95;101758.47;5022429;28;45240;-58
2022/07/11 02:56:54;;;;;;;;;3.00;3.00;;;;;22.26;34.59;101754.06;5022861;28;45277;-58
2022/07/11 02:59:20;;;;;;;;;2.75;2.75;;;;;22.23;35.04;101756.91;5022323;28;45470;-58
2022/07/11 03:01:46;;;;;;;;;2.00;2.00;;;;;22.18;35.22;101759.78;5022188;28;46219;-58
2022/07/11 03:04:12;;;;;;;;;3.00;3.00;;;;;22.16;35.34;101750.97;5022254;28;45346;-58
2022/07/11 03:06:38;;;;;;;;;2.25;2.25;;;;;22.13;35.21;101750.25;5022636;28;45448;-58
2022/07/11 03:09:05;;;;;;;;;3.25;3.25;;;;;22.10;35.44;101750.38;5016624;28;45341;-58
2022/07/11 03:11:31;;;;;;;;;4.00;3.00;;;;;22.07;35.57;101748.72;5037729;28;48177;-58
2022/07/11 03:13:57;;;;;;;;;5.25;4.00;;;;;22.05;35.14;101745.25;5021958;28;45295;-58
2022/07/11 03:16:22;;;;;;;;;3.50;3.50;;;;;22.03;35.24;101745.31;5022324;28;45497;-58
2022/07/11 03:18:47;;;;;;;;;4.00;2.50;;;;;22.00;35.69;101748.16;5022275;28;45450;-58
2022/07/11 03:21:13;;;;;;;;;4.00;3.00;;;;;21.98;35.62;101746.47;5022133;28;45505;-57
2022/07/11 03:23:38;;;;;;;;;3.00;2.50;;;;;21.99;35.61;101750.91;5021976;28;45281;-58
2022/07/11 03:26:03;;;;;;;;;4.00;4.00;;;;;21.98;35.61;101749.16;5022441;28;45251;-58
2022/07/11 03:28:29;;;;;;;;;3.75;3.75;;;;;21.96;35.55;101754.59;5021926;28;45531;-58
2022/07/11 03:30:54;;;;;;;;;3.00;3.00;;;;;21.93;35.23;101749.34;5021725;28;45888;-57
2022/07/11 03:33:20;;;;;;;;;2.75;2.75;;;;;21.91;35.47;101749.44;5021840;28;45173;-58
2022/07/11 03:35:46;;;;;;;;;3.25;3.25;;;;;21.91;35.85;101753.91;5020647;28;45270;-58
2022/07/11 03:38:12;;;;;;;;;4.75;3.25;;;;;21.90;35.84;101755.72;5021822;28;49828;-58
2022/07/11 03:40:39;;;;;;;;;3.75;3.50;;;;;21.85;35.80;101755.06;5021662;28;46194;-57
2022/07/11 03:43:04;;;;;;;;;3.00;3.00;;;;;21.87;35.58;101755.00;5021468;28;45334;-58
2022/07/11 03:45:30;;;;;;;;;3.00;3.00;;;;;21.84;35.77;101755.16;5021736;28;45575;-57
2022/07/11 03:47:55;;;;;;;;;3.25;3.25;;;;;21.83;35.51;101756.94;5021669;28;45269;-57
2022/07/11 03:50:21;;;;;;;;;3.00;2.00;;;;;21.72;35.93;101743.19;5020301;28;45894;-57
2022/07/11 03:52:46;;;;;;;;;3.75;3.75;;;;;21.80;36.16;101757.09;5021563;28;45385;-57
2022/07/11 03:55:12;;;;;;;;;3.00;3.00;;;;;21.78;35.57;101760.78;5021924;28;45177;-58
2022/07/11 03:57:38;;;;;;;;;4.75;4.25;;;;;21.76;36.14;101758.19;5021344;28;45169;-58
2022/07/11 04:00:05;;;;;;;;;4.00;4.00;;;;;21.74;36.04;101760.91;5021459;28;46153;-58
2022/07/11 04:02:31;;;;;;;;;3.00;3.00;;;;;21.70;35.95;101751.28;5036381;28;45880;-57
2022/07/11 04:04:57;;;;;;;;;2.00;2.00;;;;;21.72;36.22;101753.88;5021382;28;45315;-57
2022/07/11 04:07:22;;;;;;;;;3.75;2.00;;;;;21.70;36.33;101758.44;5015702;28;59114;-60
2022/07/11 04:09:48;;;;;;;;;3.25;3.25;;;;;21.68;36.33;101755.81;5021478;28;45410;-57
2022/07/11 04:12:13;;;;;;;;;3.00;3.00;;;;;21.64;36.37;101754.22;5020784;28;45591;-58
2022/07/11 04:14:39;;;;;;;;;4.25;3.00;;;;;21.66;36.12;101760.38;5021640;28;45304;-57
2022/07/11 04:17:04;;;;;;;;;3.00;3.00;;;;;21.64;35.89;101751.56;5021162;28;45370;-57
2022/07/11 04:19:29;;;;;;;;;7.00;4.00;;;;;21.63;35.88;101754.31;5021065;28;46895;-57
2022/07/11 04:21:56;;;;;;;;;3.00;3.00;;;;;21.58;35.93;101747.38;5021106;28;45422;-57
2022/07/11 04:24:21;;;;;;;;;5.00;4.00;;;;;21.59;36.60;101748.22;5021247;28;45304;-57
2022/07/11 04:26:46;;;;;;;;;3.75;3.75;;;;;21.56;36.00;101743.88;5020989;28;45632;-57
2022/07/11 04:29:12;;;;;;;;;3.50;3.50;;;;;21.57;36.03;101750.09;5035962;28;48300;-57
2022/07/11 04:31:37;;;;;;;;;4.25;4.00;;;;;21.54;36.35;101742.19;5020476;28;45407;-57
2022/07/11 04:34:03;;;;;;;;;5.00;5.00;;;;;21.53;36.26;101743.13;5019782;28;45285;-57
2022/07/11 04:36:28;;;;;;;;;6.50;4.00;;;;;21.51;36.34;101745.88;5020994;28;45200;-57
2022/07/11 04:38:53;;;;;;;;;4.00;4.00;;;;;21.50;36.80;101752.13;5020689;28;46143;-57
2022/07/11 04:41:18;;;;;;;;;5.00;4.50;;;;;21.49;36.80;101749.53;5020911;28;45240;-57
2022/07/11 04:43:44;;;;;;;;;4.50;3.75;;;;;21.47;36.77;101754.06;5020578;28;45307;-57
2022/07/11 04:46:09;;;;;;;;;3.00;3.00;;;;;21.47;36.64;101754.06;5020089;28;45450;-57
2022/07/11 04:48:37;;;;;;;;;4.75;4.75;;;;;21.45;36.47;101761.31;5020532;28;45312;-57
2022/07/11 04:51:04;;;;;;;;;1.00;0.50;;;;;21.43;36.96;101767.59;5020710;28;45336;-57
2022/07/11 04:53:30;;;;;;;;;3.50;3.00;;;;;21.41;37.15;101760.56;5019397;28;45379;-57
2022/07/11 04:55:55;;;;;;;;;6.00;4.00;;;;;21.42;37.01;101773.88;5035975;28;45647;-57
2022/07/11 04:58:20;;;;;;;;;3.50;3.50;;;;;21.40;36.98;101775.72;5020334;28;45366;-57
2022/07/11 05:00:45;;;;;;;;;4.75;4.75;;;;;21.38;37.22;101772.28;5020341;28;46974;-57
2022/07/11 05:03:11;;;;;;;;;19.00;18.25;;;;;21.39;36.57;101771.31;5020008;28;48077;-57
2022/07/11 05:05:36;;;;;;;;;4.25;4.25;;;;;21.33;36.96;101766.22;5020651;28;45324;-57
2022/07/11 05:08:01;;;;;;;;;4.50;4.50;;;;;21.37;37.37;101772.31;5015351;28;46210;-57
2022/07/11 05:10:27;;;;;;;;;4.25;4.25;;;;;21.38;36.87;101774.94;5020276;28;48412;-57
2022/07/11 05:12:52;;;;;;;;;4.00;3.50;;;;;21.39;36.87;101781.16;5020226;28;45259;-57
2022/07/11 05:15:17;;;;;;;;;4.00;3.00;;;;;21.40;36.88;101793.59;5020413;28;45470;-57
2022/07/11 05:17:43;;;;;;;;;6.75;6.00;;;;;21.40;36.95;101796.25;5020069;28;46426;-57
2022/07/11 05:20:08;;;;;;;;;4.00;4.00;;;;;21.40;37.44;101791.78;5019899;28;55999;-59
2022/07/11 05:22:34;;;;;;;;;4.00;4.00;;;;;21.42;36.99;101799.72;5020318;28;45466;-57
2022/07/11 05:24:59;;;;;;;;;6.25;5.25;;;;;21.39;37.31;101787.34;5020253;28;45627;-57
2022/07/11 05:27:24;;;;;;;;;4.00;3.00;;;;;21.42;37.36;101789.91;5019702;28;49391;-57
2022/07/11 05:29:50;;;;;;;;;4.50;4.50;;;;;21.42;37.06;101789.03;5020347;28;45280;-58
2022/07/11 05:32:15;;;;;;;;;5.25;5.25;;;;;21.46;37.57;101789.75;5020192;28;45281;-57
2022/07/11 05:34:41;;;;;;;;;3.00;3.00;;;;;21.42;37.27;101787.25;5020295;28;45196;-57
2022/07/11 05:37:06;;;;;;;;;5.25;4.00;;;;;21.46;37.12;101796.00;5035467;28;46861;-57
2022/07/11 05:39:32;;;;;;;;;4.00;4.00;;;;;21.46;37.71;101785.31;5035404;28;45345;-57
2022/07/11 05:41:57;;;;;;;;;5.50;4.00;;;;;21.49;37.49;101792.31;5020036;28;45488;-58
2022/07/11 05:44:23;;;;;;;;;3.00;3.00;;;;;21.49;37.28;101795.00;5019800;28;45533;-57
2022/07/11 05:46:48;;;;;;;;;4.75;3.00;;;;;21.53;37.34;101794.78;5034959;28;47639;-57
2022/07/11 05:49:13;;;;;;;;;5.50;4.50;;;;;21.55;37.69;101798.28;5019896;28;45490;-58
2022/07/11 05:51:39;;;;;;;;;4.00;4.00;;;;;21.56;37.34;101796.50;5019801;28;45251;-57
2022/07/11 05:54:05;;;;;;;;;3.00;3.00;;;;;21.57;37.49;101798.22;5020007;28;45315;-57
2022/07/11 05:56:30;;;;;;;;;4.50;4.25;;;;;21.59;37.93;101793.69;5019699;28;45315;-58
2022/07/11 05:58:56;;;;;;;;;3.75;3.50;;;;;21.59;37.68;101797.22;5021772;28;45331;-57
2022/07/11 06:01:22;;;;;;;;;4.00;4.00;;;;;21.66;37.77;101797.84;5023311;28;45331;-57
2022/07/11 06:03:48;;;;;;;;;4.50;4.50;;;;;21.67;37.83;101802.25;5023121;28;45221;-57
2022/07/11 06:06:14;;;;;;;;;4.25;3.25;;;;;21.69;37.72;101797.69;5023059;28;46197;-57
2022/07/11 06:08:42;;;;;;;;;8.50;5.00;;;;;21.72;37.71;101799.34;5017922;28;45185;-57
2022/07/11 06:11:10;;;;;;;;;5.00;5.00;;;;;21.74;38.05;101798.34;5023291;28;45272;-57
2022/07/11 06:13:37;;;;;;;;;4.75;4.75;;;;;21.77;37.57;101799.16;5021933;28;45277;-57
2022/07/11 06:16:03;;;;;;;;;4.75;4.75;;;;;21.79;37.91;101806.19;5022894;28;46391;-57
2022/07/11 06:18:28;;;;;;;;;4.75;4.75;;;;;21.84;37.79;101806.84;5023030;28;45305;-57
2022/07/11 06:20:53;;;;;;;;;5.25;5.25;;;;;21.84;37.59;101801.47;5022893;28;45232;-57
2022/07/11 06:23:18;;;;;;;;;5.50;4.00;;;;;21.89;37.56;101810.16;5023313;28;45445;-57
2022/07/11 06:25:44;;;;;;;;;5.00;4.00;;;;;21.93;38.10;101810.91;5022807;28;46229;-57
2022/07/11 06:28:09;;;;;;;;;4.25;4.25;;;;;21.96;37.47;101813.47;5037664;28;45321;-57
2022/07/11 06:30:36;;;;;;;;;4.00;4.00;;;;;21.99;37.93;101818.66;5022862;28;45158;-57
2022/07/11 06:33:03;;;;;;;;;5.75;5.00;;;;;22.04;37.66;101810.44;5022804;28;45473;-57
2022/07/11 06:35:28;;;;;;;;;5.75;4.50;;;;;21.98;38.07;101798.19;5022478;28;46342;-57
2022/07/11 06:37:53;;;;;;;;;3.50;3.50;;;;;22.11;37.53;101808.31;5023018;28;45318;-57
2022/07/11 06:40:19;;;;;;;;;7.75;6.00;;;;;22.13;37.87;101812.66;5022764;28;45288;-57
2022/07/11 06:42:45;;;;;;;;;5.00;3.75;;;;;22.19;37.80;101808.84;5022440;28;45331;-57
2022/07/11 06:45:10;;;;;;;;;4.50;4.50;;;;;22.23;37.81;101807.75;5022636;28;45520;-58
2022/07/11 06:47:36;;;;;;;;;4.25;4.25;;;;;22.27;37.80;101808.50;5022560;28;45292;-57
2022/07/11 06:50:02;;;;;;;;;4.00;4.00;;;;;22.31;38.14;101810.06;5022782;28;45311;-57
2022/07/11 06:52:27;;;;;;;;;5.00;4.00;;;;;22.34;37.85;101799.22;5022663;28;45212;-57
2022/07/11 06:54:53;;;;;;;;;4.25;3.75;;;;;22.40;37.93;101799.84;5022362;28;45410;-57
2022/07/11 06:57:18;;;;;;;;;4.00;4.00;;;;;22.44;37.75;101803.25;5022448;28;45329;-58
2022/07/11 06:59:43;;;;;;;;;3.00;3.00;;;;;22.47;38.05;101805.75;5021331;28;45237;-57
2022/07/11 07:02:09;;;;;;;;;4.25;4.25;;;;;22.51;37.74;101802.00;5022087;28;48604;-57
2022/07/11 07:04:34;;;;;;;;;3.75;3.75;;;;;22.55;37.90;101800.91;5022183;28;46388;-57
2022/07/11 07:07:01;;;;;;;;;4.00;4.00;;;;;22.60;37.61;101806.03;5020429;28;45206;-57
2022/07/11 07:09:27;;;;;;;;;4.00;4.00;;;;;22.65;37.90;101804.00;5018240;28;45449;-57
2022/07/11 07:11:52;;;;;;;;;3.00;2.75;;;;;22.70;37.65;101803.78;5020965;28;45560;-57
2022/07/11 07:14:18;;;;;;;;;4.50;4.50;;;;;22.73;37.78;101812.53;5021935;28;45325;-57
2022/07/11 07:16:43;;;;;;;;;3.00;3.00;;;;;22.80;38.05;101802.38;5021789;28;45470;-57
2022/07/11 07:19:08;;;;;;;;;3.00;3.00;;;;;22.84;37.54;101804.00;5022110;28;46345;-58
2022/07/11 07:21:34;;;;;;;;;3.25;2.25;;;;;22.88;37.39;101800.22;5022160;28;45310;-58
2022/07/11 07:23:59;;;;;;;;;2.50;2.50;;;;;22.92;37.66;101795.56;5021949;28;45494;-57
2022/07/11 07:26:24;;;;;;;;;1.75;1.00;;;;;22.98;38.14;101806.00;5022210;28;45302;-58
2022/07/11 07:28:50;;;;;;;;;2.25;2.25;;;;;23.02;37.80;101807.56;5021940;28;45460;-57
2022/07/11 07:31:15;;;;;;;;;3.25;2.00;;;;;23.07;37.45;101809.13;5021934;28;45422;-57
2022/07/11 07:33:41;;;;;;;;;2.00;2.00;;;;;23.11;37.63;101805.38;5021758;28;46168;-58
2022/07/11 07:36:07;;;;;;;;;1.75;1.75;;;;;23.15;37.65;101796.22;5022181;28;45265;-57
2022/07/11 07:38:32;;;;;;;;;2.00;2.00;;;;;23.13;37.64;101792.75;5021986;28;45299;-57
2022/07/11 07:40:57;;;;;;;;;4.00;3.00;;;;;23.21;37.52;101799.50;5022041;28;45216;-57
2022/07/11 07:43:22;;;;;;;;;2.00;2.00;;;;;23.28;37.48;101808.09;5020115;28;45317;-57
2022/07/11 07:45:48;;;;;;;;;3.00;3.00;;;;;23.33;37.28;101810.53;5022126;28;45213;-58
2022/07/11 07:48:13;;;;;;;;;2.00;2.00;;;;;23.34;37.60;101807.75;5021746;28;45189;-58
2022/07/11 07:50:38;;;;;;;;;2.75;2.75;;;;;23.43;37.28;101805.56;5021653;28;45224;-58
2022/07/11 07:53:04;;;;;;;;;3.75;2.75;;;;;23.46;37.33;101805.41;5021551;28;45193;-57
2022/07/11 07:55:29;;;;;;;;;1.75;1.75;;;;;23.52;37.05;101815.81;5021822;28;45263;-57
2022/07/11 07:57:55;;;;;;;;;3.00;3.00;;;;;23.56;37.41;101809.34;5021504;28;45402;-58
2022/07/11 08:03:05;;;;;;;;;3.00;3.00;;;;;23.63;37.13;101807.22;5021058;28;45368;-58
2022/07/11 08:05:31;;;;;;;;;2.00;2.00;;;;;23.68;37.13;101806.03;5021596;28;45306;-57
2022/07/11 08:07:56;;;;;;;;;3.25;2.50;;;;;23.73;37.17;101805.75;5016249;28;45312;-58
2022/07/11 08:10:22;;;;;;;;;3.75;2.00;;;;;23.80;37.23;101806.31;5021712;28;45287;-57
2022/07/11 08:12:48;;;;;;;;;4.00;3.00;;;;;23.83;37.27;101807.00;5020866;28;46837;-57
2022/07/11 08:15:13;;;;;;;;;3.00;2.00;;;;;23.88;37.37;101812.13;5021368;28;45442;-57
2022/07/11 08:17:41;;;;;;;;;4.00;3.00;;;;;23.94;37.15;101808.31;5021099;28;45264;-57
2022/07/11 08:20:07;;;;;;;;;3.00;3.00;;;;;23.99;37.03;101800.88;5021259;28;45481;-57
2022/07/11 08:22:32;;;;;;;;;4.75;4.75;;;;;24.02;37.36;101798.00;5019231;28;45264;-58
2022/07/11 08:24:58;;;;;;;;;3.75;3.00;;;;;24.08;37.21;101800.34;5021262;28;45232;-57
2022/07/11 08:27:23;;;;;;;;;2.25;2.25;;;;;24.13;37.05;101802.78;5020984;28;45228;-57
2022/07/11 08:29:48;;;;;;;;;3.75;3.75;;;;;24.17;37.04;101805.19;5021326;28;45171;-57
2022/07/11 08:32:14;;;;;;;;;2.50;2.50;;;;;24.19;37.01;101783.66;5020837;28;45243;-57
2022/07/11 08:34:39;;;;;;;;;3.75;3.00;;;;;24.27;37.06;101786.78;5020638;28;45252;-57
2022/07/11 08:37:05;;;;;;;;;3.25;3.25;;;;;24.31;36.62;101777.63;5021037;28;45233;-57
2022/07/11 08:39:30;;;;;;;;;4.00;4.00;;;;;24.36;36.45;101777.34;5021055;28;45433;-57
2022/07/11 08:41:56;;;;;;;;;3.00;3.00;;;;;24.41;36.85;101774.41;5019160;28;53568;-57
2022/07/11 08:44:24;;;;;;;;;4.00;2.75;;;;;24.45;36.89;101768.78;5020860;28;45363;-58
2022/07/11 08:46:52;;;;;;;;;4.00;2.25;;;;;24.49;36.79;101762.25;5020791;28;45339;-57
2022/07/11 08:49:18;;;;;;;;;3.00;3.00;;;;;24.55;36.94;101762.88;5020601;28;45221;-58
2022/07/11 08:51:44;;;;;;;;;2.00;2.00;;;;;24.59;36.39;101767.97;5020428;28;45236;-57
2022/07/11 08:54:11;;;;;;;;;2.25;2.25;;;;;24.64;36.75;101762.31;5020836;28;45337;-57
2022/07/11 08:56:37;;;;;;;;;3.50;3.00;;;;;24.69;36.68;101767.47;5020782;28;45268;-58
2022/07/11 08:59:03;;;;;;;;;4.00;4.00;;;;;24.74;36.59;101758.22;5020357;28;45554;-58
2022/07/11 09:01:31;;;;;;;;;4.50;3.00;;;;;24.79;36.63;101755.22;5020201;28;45450;-58
2022/07/11 09:03:57;;;;;;;;;2.00;2.00;;;;;24.82;36.48;101755.06;5020368;28;45404;-57
2022/07/11 09:06:22;;;;;;;;;1.25;1.25;;;;;24.88;36.37;101752.03;5020525;28;45161;-58
2022/07/11 09:08:48;;;;;;;;;2.00;2.00;;;;;24.91;36.30;101746.44;5015476;28;45469;-57
2022/07/11 09:11:13;;;;;;;;;2.25;2.25;;;;;24.98;36.32;101755.00;5019005;28;46197;-58
2022/07/11 09:13:39;;;;;;;;;2.00;2.00;;;;;25.01;36.57;101757.53;5020292;28;45293;-57
2022/07/11 09:16:06;;;;;;;;;3.00;3.00;;;;;25.05;36.13;101752.84;5020249;28;45249;-57
2022/07/11 09:18:41;;;;;;;;;2.00;2.00;;;;;25.14;36.17;101744.22;5020623;28;45208;-58
2022/07/11 09:27:00;;;;;;;;;5.50;5.00;;;;;25.36;36.12;101750.97;4958813;28;45378;-58
2022/07/11 09:29:27;;;;;;;;;4.00;3.25;;;;;25.41;35.97;101743.53;5007306;28;45323;-59
2022/07/11 09:31:52;;;;;;;;;3.00;3.00;;;;;25.47;36.11;101735.94;5019700;28;46102;-58
2022/07/11 09:34:23;;;;;;;;;3.00;3.00;;;;;25.54;36.22;101749.88;5020227;28;45240;-58
2022/07/11 09:36:51;;;;;;;;;4.00;4.00;;;;;25.63;35.93;101745.75;5020248;28;45312;-58
2022/07/11 09:39:22;;;;;;;;;3.25;3.00;;;;;25.70;36.17;101748.91;5019678;28;45309;-58
2022/07/11 09:41:49;;;;;;;;;4.00;4.00;;;;;25.76;36.17;101735.97;5019982;28;46366;-60
2022/07/11 09:44:17;;;;;;;;;3.50;3.50;;;;;25.82;36.03;101740.06;5019734;28;45296;-58
2022/07/11 09:46:46;;;;;;;;;3.50;3.50;;;;;25.90;36.37;101736.91;5019768;28;45159;-57
2022/07/11 09:49:12;;;;;;;;;3.00;3.00;;;;;25.96;36.33;101737.38;5019924;28;45517;-58
2022/07/11 09:51:38;;;;;;;;;3.00;3.00;;;;;26.04;36.09;101742.28;5019556;28;46348;-58
2022/07/11 09:54:05;;;;;;;;;5.50;5.50;;;;;26.10;35.55;101741.91;5019935;28;45349;-58
2022/07/11 09:56:30;;;;;;;;;5.00;4.50;;;;;26.18;36.14;101735.19;5018520;28;45357;-57
2022/07/11 09:59:00;;;;;;;;;4.00;4.00;;;;;26.26;35.50;101743.59;5019687;28;45469;-58
2022/07/11 10:01:27;;;;;;;;;4.00;4.00;;;;;26.35;35.71;101742.16;5019404;28;46052;-58
2022/07/11 10:03:53;;;;;;;;;2.00;2.00;;;;;26.42;35.62;101738.09;5019570;28;45295;-58
2022/07/11 10:06:18;;;;;;;;;1.50;1.50;;;;;26.49;36.14;101734.03;5019653;28;45307;-57
2022/07/11 10:08:43;;;;;;;;;2.00;2.00;;;;;26.57;35.58;101734.38;5014783;28;45538;-57
2022/07/11 10:11:11;;;;;;;;;4.00;2.00;;;;;26.66;35.84;101729.34;5019361;28;45364;-57
2022/07/11 10:13:37;;;;;;;;;1.75;1.75;;;;;26.73;35.86;101733.38;5019057;28;45455;-57
2022/07/11 10:16:11;;;;;;;;;3.00;3.00;;;;;26.83;35.41;101736.31;5019401;28;45261;-57
2022/07/11 10:18:45;;;;;;;;;3.50;3.00;;;;;26.90;35.71;101725.00;5019694;28;45331;-57
2022/07/11 10:21:37;;;;;;;;;5.50;5.50;;;;;27.01;35.59;101735.06;5019370;28;46422;-57
2022/07/11 10:24:23;;;;;;;;;4.50;3.50;;;;;27.13;35.24;101733.38;5019165;28;45339;-57
2022/07/11 10:26:59;;;;;;;;;2.00;2.00;;;;;27.22;35.50;101724.63;5019735;28;45462;-57
2022/07/11 10:29:39;;;;;;;;;2.00;2.00;;;;;27.33;35.71;101728.41;5019545;28;45383;-57
2022/07/11 10:32:06;;;;;;;;;2.75;2.75;;;;;27.41;35.44;101726.94;5034364;28;46498;-57
2022/07/11 10:34:31;;;;;;;;;4.00;3.50;;;;;27.53;35.72;101736.03;5019650;28;45221;-57
2022/07/11 10:37:05;;;;;;;;;2.50;2.50;;;;;27.65;35.73;101734.28;5019270;28;45320;-57
2022/07/11 10:39:32;;;;;;;;;4.00;4.00;;;;;27.78;35.11;101736.94;5019385;28;45471;-57
2022/07/11 10:41:59;;;;;;;;;3.25;3.25;;;;;27.92;35.34;101733.25;5018718;28;45277;-57
2022/07/11 10:44:26;;;;;;;;;3.00;3.00;;;;;28.06;34.84;101726.88;5020498;28;45385;-57
2022/07/11 10:46:52;;;;;;;;;2.00;2.00;;;;;28.21;35.06;101720.38;5022662;28;45291;-57
2022/07/11 10:49:43;;;;;;;;;4.50;3.75;;;;;28.45;34.88;101727.63;5022461;28;45502;-57
2022/07/11 10:52:08;;;;;;;;;2.00;2.00;;;;;28.81;35.10;101733.94;5009727;28;47118;-57
2022/07/11 10:54:34;;;;;;;;;1.75;1.75;;;;;29.27;35.84;101734.94;5022534;28;45272;-58
2022/07/11 10:57:31;;;;;;;;;2.00;2.00;;;;;29.84;36.03;101725.03;5022557;28;45390;-57
2022/07/11 11:00:05;;;;;;;;;4.00;3.50;;;;;30.60;36.53;101734.28;5022661;28;45303;-58
2022/07/11 11:02:41;;;;;;;;;4.25;1.25;;;;;31.30;35.87;101739.25;5020622;28;46835;-58
2022/07/11 11:05:07;;;;;;;;;5.25;4.75;;;;;32.02;35.66;101741.00;5020556;28;47041;-57
2022/07/11 11:07:35;;;;;;;;;2.00;2.00;;;;;32.69;35.82;101733.13;5017301;28;45439;-62
2022/07/11 11:10:04;;;;;;;;;4.00;2.25;;;;;33.41;35.49;101735.50;5022192;28;45209;-57
2022/07/11 11:13:04;;;;;;;;;1.50;1.50;;;;;34.20;35.68;101733.25;5019972;28;46578;-57
2022/07/11 11:15:49;;;;;;;;;1.00;1.00;;;;;35.10;35.17;101737.91;5037041;28;45296;-58
2022/07/11 11:18:24;;;;;;;;;3.75;2.00;;;;;35.92;35.36;101735.63;5022263;28;45241;-57
2022/07/11 11:21:06;;;;;;;;;2.75;2.75;;;;;36.77;34.81;101720.09;5037079;28;45194;-57
2022/07/11 11:23:33;;;;;;;;;2.00;2.00;;;;;37.55;34.54;101718.59;5021770;28;45314;-57
2022/07/11 11:26:18;;;;;;;;;2.00;1.25;;;;;38.36;34.26;101729.34;5021948;28;45153;-58
2022/07/11 11:29:01;;;;;;;;;1.00;1.00;;;;;39.24;33.61;101722.63;5021608;28;45656;-57
2022/07/11 11:31:30;;;;;;;;;1.00;1.00;;;;;39.95;33.32;101719.34;5037200;28;45427;-57